Terminal Aerodrome Forecast
Issued by NWS Wilmington, OH

Current Version | Previous Version | Graphics & Text | Print | Product List | Glossary On
Versions: 1 2 3 4 5 6 7 8 9 10 11 12 13 14 15 16 17 18 19 20
000
FTUS41 KILN 142344
TAFILN
TAF
KILN 142344Z 1500/1524 VRB03KT P6SM BKN060
     FM150700 00000KT 3SM BR SCT025
      TEMPO 1510/1512 1SM BR
     FM151400 26005KT P6SM SCT050=

USA.gov is the U.S. government's official web portal to all federal, state and local government web resources and services.